createdAt,value
2018-07-09T00:00:09.800Z,100747
2018-07-09T00:01:15.232Z,100747
2018-07-09T00:02:20.400Z,100750
2018-07-09T00:03:40.596Z,100753
2018-07-09T00:04:45.470Z,100756
2018-07-09T00:05:50.908Z,100756
2018-07-09T00:06:56.309Z,100753
2018-07-09T00:08:01.754Z,100747
2018-07-09T00:09:05.784Z,100759
2018-07-09T00:10:11.810Z,100759
2018-07-09T00:11:16.413Z,100753
2018-07-09T00:12:21.858Z,100767
2018-07-09T00:13:27.745Z,100764
2018-07-09T00:14:32.646Z,100759
2018-07-09T00:15:38.690Z,100759
2018-07-09T00:16:44.125Z,100762
2018-07-09T00:17:49.621Z,100756
2018-07-09T00:18:55.315Z,100756
2018-07-09T00:20:00.189Z,100750
2018-07-09T00:21:05.487Z,100759
2018-07-09T00:22:11.177Z,100738
2018-07-09T00:23:16.635Z,100750
2018-07-09T00:24:21.798Z,100762
2018-07-09T00:25:27.282Z,100747
2018-07-09T00:26:32.457Z,100759
2018-07-09T00:27:37.687Z,100753
2018-07-09T00:28:43.136Z,100762
2018-07-09T00:29:48.579Z,100764
2018-07-09T00:30:53.811Z,100759
2018-07-09T00:31:58.701Z,100759
2018-07-09T00:33:03.887Z,100770
2018-07-09T00:34:09.401Z,100764
2018-07-09T00:35:13.717Z,100761
2018-07-09T00:36:18.895Z,100764
2018-07-09T00:37:24.025Z,100761
2018-07-09T00:38:29.219Z,100759
2018-07-09T00:39:34.751Z,100756
2018-07-09T00:40:39.921Z,100759
2018-07-09T00:41:45.084Z,100753
2018-07-09T00:42:50.214Z,100756
2018-07-09T00:43:55.102Z,100756
2018-07-09T00:45:00.288Z,100753
2018-07-09T00:46:05.983Z,100759
2018-07-09T00:47:11.142Z,100756
2018-07-09T00:48:16.345Z,100759
2018-07-09T00:49:22.036Z,100758
2018-07-09T00:50:26.901Z,100750
2018-07-09T00:51:31.941Z,100753
2018-07-09T00:52:36.837Z,100756
2018-07-09T00:53:42.009Z,100758
2018-07-09T00:54:47.548Z,100761
2018-07-09T00:55:53.004Z,100758
2018-07-09T00:56:58.451Z,100770
2018-07-09T00:58:04.144Z,100767
2018-07-09T00:59:09.324Z,100776
2018-07-09T01:00:14.496Z,100755
2018-07-09T01:01:20.305Z,100755
2018-07-09T01:02:25.434Z,100764
2018-07-09T01:03:31.266Z,100767
2018-07-09T01:04:36.433Z,100761
2018-07-09T01:05:41.593Z,100767
2018-07-09T01:06:46.730Z,100761
2018-07-09T01:07:51.901Z,100764
2018-07-09T01:08:57.055Z,100764
2018-07-09T01:10:01.908Z,100758
2018-07-09T01:11:06.247Z,100758
2018-07-09T01:12:11.828Z,100761
2018-07-09T01:13:17.056Z,100770
2018-07-09T01:14:22.229Z,100753
2018-07-09T01:15:27.462Z,100764
2018-07-09T01:16:32.388Z,100767
2018-07-09T01:17:37.557Z,100758
2018-07-09T01:18:43.835Z,100758
2018-07-09T01:19:48.996Z,100764
2018-07-09T01:20:54.469Z,100761
2018-07-09T01:21:59.880Z,100764
2018-07-09T01:23:04.761Z,100770
2018-07-09T01:24:09.673Z,100767
2018-07-09T01:25:15.440Z,100776
2018-07-09T01:26:20.879Z,100767
2018-07-09T01:27:25.762Z,100764
2018-07-09T01:28:30.915Z,100758
2018-07-09T01:29:35.526Z,100770
2018-07-09T01:30:40.814Z,100764
2018-07-09T01:31:45.717Z,100764
2018-07-09T01:32:50.608Z,100773
2018-07-09T01:33:56.176Z,100761
2018-07-09T01:35:01.650Z,100761
2018-07-09T01:36:05.980Z,100767
2018-07-09T01:37:11.681Z,100767
2018-07-09T01:38:17.143Z,100764
2018-07-09T01:39:22.317Z,100753
2018-07-09T01:40:27.654Z,100761
2018-07-09T01:41:32.813Z,100761
2018-07-09T01:42:38.509Z,100764
2018-07-09T01:43:43.944Z,100756
2018-07-09T01:44:48.865Z,100756
2018-07-09T01:45:54.270Z,100750
2018-07-09T01:46:58.886Z,100756
2018-07-09T01:48:03.747Z,100750
2018-07-09T01:49:08.619Z,100747
2018-07-09T01:50:14.058Z,100747
2018-07-09T01:51:19.230Z,100747
2018-07-09T01:52:23.790Z,100747
2018-07-09T01:53:29.249Z,100744
2018-07-09T01:54:34.249Z,100744
2018-07-09T01:55:39.697Z,100738
2018-07-09T01:56:45.141Z,100733
2018-07-09T01:57:50.836Z,100741
2018-07-09T01:58:56.281Z,100738
2018-07-09T02:00:01.441Z,100738
2018-07-09T02:01:06.300Z,100744
2018-07-09T02:02:11.770Z,100756
2018-07-09T02:03:17.210Z,100744
2018-07-09T02:04:21.775Z,100741
2018-07-09T02:05:26.949Z,100747
2018-07-09T02:06:32.810Z,100744
2018-07-09T02:07:38.255Z,100724
2018-07-09T02:08:43.419Z,100747
2018-07-09T02:09:48.858Z,100747
2018-07-09T02:10:53.458Z,100738
2018-07-09T02:11:58.897Z,100744
2018-07-09T02:13:04.326Z,100747
2018-07-09T02:14:08.914Z,100741
2018-07-09T02:15:13.799Z,100738
2018-07-09T02:16:19.352Z,100736
2018-07-09T02:17:23.951Z,100738
2018-07-09T02:18:31.153Z,100730
2018-07-09T02:19:36.044Z,100741
2018-07-09T02:20:41.487Z,100733
2018-07-09T02:21:47.202Z,100741
2018-07-09T02:22:52.386Z,100741
2018-07-09T02:23:57.546Z,100736
2018-07-09T02:25:03.239Z,100738
2018-07-09T02:26:07.847Z,100736
2018-07-09T02:27:13.288Z,100733
2018-07-09T02:28:19.084Z,100736
2018-07-09T02:29:24.245Z,100730
2018-07-09T02:30:29.606Z,100736
2018-07-09T02:31:34.775Z,100744
2018-07-09T02:32:40.211Z,100741
2018-07-09T02:33:45.438Z,100738
2018-07-09T02:34:50.325Z,100741
2018-07-09T02:35:55.479Z,100736
2018-07-09T02:37:01.005Z,100736
2018-07-09T02:38:05.611Z,100738
2018-07-09T02:39:10.212Z,100739
2018-07-09T02:40:16.029Z,100747
2018-07-09T02:41:21.191Z,100744
2018-07-09T02:42:26.756Z,100730
2018-07-09T02:43:31.647Z,100733
2018-07-09T02:44:37.094Z,100733
2018-07-09T02:45:42.505Z,100736
2018-07-09T02:46:47.959Z,100739
2018-07-09T02:47:53.128Z,100739
2018-07-09T02:48:58.504Z,100739
2018-07-09T02:50:03.132Z,100744
2018-07-09T02:51:08.018Z,100736
2018-07-09T02:52:12.999Z,100739
2018-07-09T02:53:18.177Z,100741
2018-07-09T02:54:23.048Z,100741
2018-07-09T02:55:28.669Z,100750
2018-07-09T02:56:33.882Z,100747
2018-07-09T02:57:39.454Z,100747
2018-07-09T02:58:44.334Z,100744
2018-07-09T02:59:49.498Z,100747
2018-07-09T03:00:54.529Z,100744
2018-07-09T03:02:00.441Z,100756
2018-07-09T03:03:05.889Z,100753
2018-07-09T03:04:12.196Z,100753
2018-07-09T03:05:17.369Z,100753
2018-07-09T03:06:22.825Z,100765
2018-07-09T03:07:29.211Z,100756
2018-07-09T03:08:34.389Z,100753
2018-07-09T03:09:40.180Z,100759
2018-07-09T03:10:45.632Z,100767
2018-07-09T03:11:50.788Z,100762
2018-07-09T03:12:55.789Z,100762
2018-07-09T03:14:00.952Z,100762
2018-07-09T03:15:06.134Z,100762
2018-07-09T03:16:11.910Z,100759
2018-07-09T03:17:17.365Z,100765
2018-07-09T03:18:21.944Z,100770
2018-07-09T03:19:27.816Z,100776
2018-07-09T03:20:32.690Z,100770
2018-07-09T03:21:38.480Z,100773
2018-07-09T03:22:43.924Z,100770
2018-07-09T03:23:49.103Z,100776
2018-07-09T03:24:54.242Z,100770
2018-07-09T03:25:59.702Z,100770
2018-07-09T03:27:05.144Z,100776
2018-07-09T03:28:10.370Z,100773
2018-07-09T03:29:15.834Z,100764
2018-07-09T03:30:21.004Z,100764
2018-07-09T03:31:26.419Z,100776
2018-07-09T03:32:31.578Z,100773
2018-07-09T03:33:37.007Z,100767
2018-07-09T03:34:41.877Z,100767
2018-07-09T03:35:47.365Z,100770
2018-07-09T03:36:53.102Z,100764
2018-07-09T03:37:58.263Z,100764
2018-07-09T03:39:03.427Z,100759
2018-07-09T03:40:09.225Z,100764
2018-07-09T03:41:14.372Z,100762
2018-07-09T03:42:19.813Z,100779
2018-07-09T03:43:25.171Z,100773
2018-07-09T03:44:30.319Z,100764
2018-07-09T03:45:35.601Z,100770
2018-07-09T03:46:40.760Z,100770
2018-07-09T03:47:45.929Z,100773
2018-07-09T03:48:51.611Z,100770
2018-07-09T03:49:57.216Z,100762
2018-07-09T03:51:02.084Z,100770
2018-07-09T03:52:06.929Z,100767
2018-07-09T03:53:11.514Z,100773
2018-07-09T03:54:16.961Z,100776
2018-07-09T03:55:21.796Z,100773
2018-07-09T03:56:27.239Z,100782
2018-07-09T03:57:31.962Z,100785
2018-07-09T03:58:37.135Z,100782
2018-07-09T03:59:42.600Z,100788
2018-07-09T04:00:48.167Z,100773
2018-07-09T04:01:53.359Z,100782
2018-07-09T04:02:58.230Z,100782
2018-07-09T04:04:03.925Z,100779
2018-07-09T04:05:09.078Z,100785
2018-07-09T04:06:14.526Z,100785
2018-07-09T04:07:20.835Z,100779
2018-07-09T04:08:25.992Z,100785
2018-07-09T04:09:31.367Z,100785
2018-07-09T04:10:36.528Z,100785
2018-07-09T04:11:41.135Z,100785
2018-07-09T04:12:46.532Z,100788
2018-07-09T04:13:51.697Z,100782
2018-07-09T04:14:57.132Z,100785
2018-07-09T04:16:02.981Z,100787
2018-07-09T04:17:08.144Z,100782
2018-07-09T04:18:13.017Z,100793
2018-07-09T04:19:18.764Z,100790
2018-07-09T04:20:23.941Z,100785
2018-07-09T04:21:29.265Z,100804
2018-07-09T04:22:34.712Z,100785
2018-07-09T04:23:39.584Z,100779
2018-07-09T04:24:45.057Z,100787
2018-07-09T04:25:50.519Z,100793
2018-07-09T04:26:55.684Z,100798
2018-07-09T04:28:01.405Z,100798
2018-07-09T04:29:06.007Z,100798
2018-07-09T04:30:10.885Z,100801
2018-07-09T04:31:16.298Z,100801
2018-07-09T04:32:21.464Z,100793
2018-07-09T04:33:26.977Z,100804
2018-07-09T04:34:31.867Z,100801
2018-07-09T04:35:37.325Z,100801
2018-07-09T04:36:42.173Z,100801
2018-07-09T04:37:47.447Z,100798
2018-07-09T04:38:52.907Z,100793
2018-07-09T04:39:58.127Z,100807
2018-07-09T04:41:03.021Z,100801
2018-07-09T04:42:07.337Z,100798
2018-07-09T04:43:12.937Z,100804
2018-07-09T04:44:18.549Z,100796
2018-07-09T04:45:23.994Z,100796
2018-07-09T04:46:30.039Z,100793
2018-07-09T04:47:35.480Z,100790
2018-07-09T04:48:41.042Z,100798
2018-07-09T04:49:46.477Z,100790
2018-07-09T04:50:51.654Z,100801
2018-07-09T04:51:57.206Z,100790
2018-07-09T04:53:02.371Z,100793
2018-07-09T04:54:07.852Z,100782
2018-07-09T04:55:12.983Z,100801
2018-07-09T04:56:18.131Z,100796
2018-07-09T04:57:23.288Z,100801
2018-07-09T04:58:43.340Z,100790
2018-07-09T04:59:48.781Z,100798
2018-07-09T05:00:53.913Z,100798
2018-07-09T05:01:59.350Z,100793
2018-07-09T05:03:04.513Z,100798
2018-07-09T05:04:10.302Z,100798
2018-07-09T05:05:14.923Z,100790
2018-07-09T05:06:20.093Z,100790
2018-07-09T05:07:26.157Z,100796
2018-07-09T05:08:31.619Z,100782
2018-07-09T05:09:37.318Z,100785
2018-07-09T05:10:42.545Z,100779
2018-07-09T05:11:47.686Z,100791
2018-07-09T05:12:53.149Z,100788
2018-07-09T05:13:58.606Z,100788
2018-07-09T05:15:03.779Z,100788
2018-07-09T05:16:09.211Z,100791
2018-07-09T05:17:14.411Z,100779
2018-07-09T05:18:19.856Z,100779
2018-07-09T05:19:24.971Z,100779
2018-07-09T05:20:29.861Z,100779
2018-07-09T05:21:35.491Z,100779
2018-07-09T05:22:40.706Z,100782
2018-07-09T05:23:45.584Z,100779
2018-07-09T05:24:51.257Z,100776
2018-07-09T05:25:56.707Z,100773
2018-07-09T05:27:01.602Z,100782
2018-07-09T05:28:06.595Z,100788
2018-07-09T05:29:11.756Z,100785
2018-07-09T05:30:17.217Z,100782
2018-07-09T05:31:22.789Z,100785
2018-07-09T05:32:27.677Z,100785
2018-07-09T05:33:33.875Z,100782
2018-07-09T05:34:38.774Z,100785
2018-07-09T05:35:44.240Z,100785
2018-07-09T05:36:49.475Z,100788
2018-07-09T05:37:54.061Z,100791
2018-07-09T05:38:59.236Z,100791
2018-07-09T05:40:05.064Z,100791
2018-07-09T05:41:10.816Z,100785
2018-07-09T05:42:16.299Z,100785
2018-07-09T05:43:22.152Z,100791
2018-07-09T05:44:27.019Z,100788
2018-07-09T05:45:32.907Z,100785
2018-07-09T05:46:38.360Z,100774
2018-07-09T05:47:43.817Z,100782
2018-07-09T05:48:49.339Z,100785
2018-07-09T05:49:54.500Z,100785
2018-07-09T05:50:59.953Z,100780
2018-07-09T05:52:05.456Z,100782
2018-07-09T05:53:10.635Z,100788
2018-07-09T05:54:16.070Z,100788
2018-07-09T05:55:21.478Z,100782
2018-07-09T05:56:26.353Z,100777
2018-07-09T05:57:32.397Z,100777
2018-07-09T05:58:37.846Z,100777
2018-07-09T05:59:43.651Z,100780
2018-07-09T06:00:49.438Z,100771
2018-07-09T06:01:54.608Z,100774
2018-07-09T06:03:00.061Z,100774
2018-07-09T06:04:05.364Z,100777
2018-07-09T06:05:10.536Z,100765
2018-07-09T06:06:15.633Z,100759
2018-07-09T06:07:21.158Z,100759
2018-07-09T06:08:26.020Z,100771
2018-07-09T06:09:31.257Z,100765
2018-07-09T06:10:36.700Z,100765
2018-07-09T06:11:41.868Z,100768
2018-07-09T06:12:47.440Z,100768
2018-07-09T06:13:52.313Z,100768
2018-07-09T06:14:57.487Z,100768
2018-07-09T06:16:03.383Z,100771
2018-07-09T06:17:08.260Z,100771
2018-07-09T06:18:13.415Z,100768
2018-07-09T06:19:18.957Z,100771
2018-07-09T06:20:23.819Z,100765
2018-07-09T06:21:29.837Z,100771
2018-07-09T06:22:34.921Z,100774
2018-07-09T06:23:40.099Z,100774
2018-07-09T06:24:45.886Z,100780
2018-07-09T06:25:50.773Z,100780
2018-07-09T06:26:55.939Z,100777
2018-07-09T06:28:01.328Z,100786
2018-07-09T06:29:06.207Z,100777
2018-07-09T06:30:11.077Z,100777
2018-07-09T06:31:16.501Z,100780
2018-07-09T06:32:21.666Z,100771
2018-07-09T06:33:27.900Z,100789
2018-07-09T06:34:33.057Z,100783
2018-07-09T06:35:38.224Z,100777
2018-07-09T06:36:58.617Z,100777
2018-07-09T06:38:03.488Z,100777
2018-07-09T06:39:08.667Z,100786
2018-07-09T06:40:14.070Z,100780
2018-07-09T06:41:19.232Z,100780
2018-07-09T06:42:24.136Z,100786
2018-07-09T06:43:44.448Z,100783
2018-07-09T06:44:50.361Z,100777
2018-07-09T06:45:56.089Z,100780
2018-07-09T06:47:01.526Z,100786
2018-07-09T06:48:06.124Z,100783
2018-07-09T06:49:11.537Z,100783
2018-07-09T06:50:16.706Z,100792
2018-07-09T06:51:22.168Z,100786
2018-07-09T06:52:27.891Z,100792
2018-07-09T06:53:32.795Z,100789
2018-07-09T06:54:37.931Z,100783
2018-07-09T06:55:42.520Z,100786
2018-07-09T06:56:47.703Z,100783
2018-07-09T06:57:52.807Z,100786
2018-07-09T06:58:58.290Z,100780
2018-07-09T07:00:02.878Z,100771
2018-07-09T07:01:08.042Z,100783
2018-07-09T07:02:12.968Z,100783
2018-07-09T07:03:18.209Z,100792
2018-07-09T07:04:23.716Z,100795
2018-07-09T07:05:28.301Z,100780
2018-07-09T07:06:33.184Z,100789
2018-07-09T07:07:38.632Z,100783
2018-07-09T07:08:43.935Z,100789
2018-07-09T07:09:49.748Z,100789
2018-07-09T07:10:54.911Z,100783
2018-07-09T07:12:00.082Z,100783
2018-07-09T07:13:04.927Z,100780
2018-07-09T07:14:10.393Z,100769
2018-07-09T07:15:15.906Z,100769
2018-07-09T07:16:21.600Z,100766
2018-07-09T07:17:26.759Z,100769
2018-07-09T07:18:32.603Z,100763
2018-07-09T07:19:36.942Z,100769
2018-07-09T07:20:42.084Z,100777
2018-07-09T07:21:48.102Z,100786
2018-07-09T07:22:52.968Z,100780
2018-07-09T07:23:57.843Z,100783
2018-07-09T07:25:03.352Z,100783
2018-07-09T07:26:08.515Z,100792
2018-07-09T07:27:13.404Z,100783
2018-07-09T07:28:18.779Z,100778
2018-07-09T07:29:23.972Z,100778
2018-07-09T07:30:28.576Z,100786
2018-07-09T07:31:33.764Z,100783
2018-07-09T07:32:38.984Z,100780
2018-07-09T07:33:45.103Z,100775
2018-07-09T07:34:50.552Z,100786
2018-07-09T07:35:55.453Z,100789
2018-07-09T07:37:01.260Z,100786
2018-07-09T07:38:06.155Z,100792
2018-07-09T07:39:10.753Z,100781
2018-07-09T07:40:16.321Z,100772
2018-07-09T07:41:21.525Z,100789
2018-07-09T07:42:27.187Z,100781
2018-07-09T07:43:32.066Z,100784
2018-07-09T07:44:37.515Z,100775
2018-07-09T07:45:42.675Z,100778
2018-07-09T07:46:47.855Z,100766
2018-07-09T07:47:53.006Z,100775
2018-07-09T07:48:58.415Z,100784
2018-07-09T07:50:03.024Z,100781
2018-07-09T07:51:07.934Z,100778
2018-07-09T07:52:13.371Z,100778
2018-07-09T07:53:18.739Z,100775
2018-07-09T07:54:23.637Z,100778
2018-07-09T07:55:43.843Z,100781
2018-07-09T07:56:49.355Z,100781
2018-07-09T07:57:55.050Z,100769
2018-07-09T07:59:00.223Z,100781
2018-07-09T08:00:04.841Z,100775
2018-07-09T08:01:09.265Z,100767
2018-07-09T08:02:14.152Z,100778
2018-07-09T08:03:19.801Z,100764
2018-07-09T08:04:25.243Z,100770
2018-07-09T08:05:30.034Z,100761
2018-07-09T08:06:35.443Z,100767
2018-07-09T08:07:40.062Z,100773
2018-07-09T08:08:45.225Z,100764
2018-07-09T08:09:50.631Z,100779
2018-07-09T08:10:54.972Z,100761
2018-07-09T08:13:28.996Z,100747
2018-07-09T08:14:34.177Z,100758
2018-07-09T08:15:40.105Z,100744
2018-07-09T08:16:45.442Z,100747
2018-07-09T08:17:50.332Z,100741
2018-07-09T08:18:55.883Z,100732
2018-07-09T08:20:01.050Z,100735
2018-07-09T08:21:05.661Z,100738
2018-07-09T08:22:10.890Z,100738
2018-07-09T08:23:15.811Z,100735
2018-07-09T08:24:21.002Z,100747
2018-07-09T08:25:26.591Z,100744
2018-07-09T08:26:32.145Z,100732
2018-07-09T08:27:37.576Z,100741
2018-07-09T08:28:43.234Z,100738
2018-07-09T08:29:48.715Z,100744
2018-07-09T08:30:54.324Z,100732
2018-07-09T08:31:59.574Z,100732
2018-07-09T08:33:05.015Z,100729
2018-07-09T08:34:10.305Z,100720
2018-07-09T08:35:15.494Z,100723
2018-07-09T08:36:20.675Z,100726
2018-07-09T08:37:26.463Z,100712
2018-07-09T08:38:31.906Z,100726
2018-07-09T08:39:37.339Z,100723
2018-07-09T08:40:41.935Z,100732
2018-07-09T08:41:47.404Z,100715
2018-07-09T08:42:52.889Z,100723
2018-07-09T08:43:58.038Z,100715
2018-07-09T08:45:03.246Z,100715
2018-07-09T08:46:08.202Z,100720
2018-07-09T08:47:13.559Z,100712
2018-07-09T08:48:18.766Z,100720
2018-07-09T08:49:24.206Z,100706
2018-07-09T08:50:29.657Z,100718
2018-07-09T08:51:34.891Z,100715
2018-07-09T08:52:40.073Z,100721
2018-07-09T08:53:45.249Z,100715
2018-07-09T08:54:51.092Z,100726
2018-07-09T08:55:55.406Z,100724
2018-07-09T08:57:00.573Z,100726
2018-07-09T08:58:06.418Z,100721
2018-07-09T08:59:11.579Z,100724
2018-07-09T09:00:16.729Z,100715
2018-07-09T09:01:21.411Z,100718
2018-07-09T09:02:26.864Z,100715
2018-07-09T09:03:32.834Z,100718
2018-07-09T09:04:38.005Z,100715
2018-07-09T09:05:43.964Z,100712
2018-07-09T09:06:49.588Z,100721
2018-07-09T09:07:54.753Z,100715
2018-07-09T09:08:59.925Z,100712
2018-07-09T09:10:04.847Z,100715
2018-07-09T09:11:10.250Z,100718
2018-07-09T09:12:15.691Z,100709
2018-07-09T09:13:21.003Z,100715
2018-07-09T09:14:26.461Z,100712
2018-07-09T09:15:31.316Z,100709
2018-07-09T09:16:36.899Z,100715
2018-07-09T09:17:42.433Z,100718
2018-07-09T09:18:48.124Z,100718
2018-07-09T09:19:53.001Z,100727
2018-07-09T09:20:58.167Z,100712
2018-07-09T09:22:03.612Z,100721
2018-07-09T09:23:08.785Z,100709
2018-07-09T09:24:13.695Z,100709
2018-07-09T09:25:18.722Z,100718
2018-07-09T09:26:23.039Z,100712
2018-07-09T09:27:29.697Z,100700
2018-07-09T09:28:34.568Z,100712
2018-07-09T09:29:39.462Z,100718
2018-07-09T09:30:45.172Z,100712
2018-07-09T09:31:50.343Z,100703
2018-07-09T09:32:55.515Z,100706
2018-07-09T09:34:01.046Z,100703
2018-07-09T09:35:05.927Z,100703
2018-07-09T09:36:11.078Z,100703
2018-07-09T09:37:16.314Z,100700
2018-07-09T09:38:21.759Z,100697
2018-07-09T09:39:28.824Z,100683
2018-07-09T09:40:33.976Z,100695
2018-07-09T09:41:39.153Z,100703
2018-07-09T09:42:44.844Z,100686
2018-07-09T09:43:49.732Z,100677
2018-07-09T09:44:55.099Z,100689
2018-07-09T09:46:00.668Z,100674
2018-07-09T09:47:05.545Z,100683
2018-07-09T09:48:10.712Z,100680
2018-07-09T09:49:16.245Z,100677
2018-07-09T09:50:21.824Z,100677
2018-07-09T09:51:27.330Z,100683
2018-07-09T09:52:32.703Z,100671
2018-07-09T09:53:38.220Z,100668
2018-07-09T09:54:43.813Z,100671
2018-07-09T09:55:48.692Z,100683
2018-07-09T09:56:54.135Z,100671
2018-07-09T09:57:59.941Z,100671
2018-07-09T09:59:05.392Z,100674
2018-07-09T10:00:10.192Z,100683
2018-07-09T10:01:16.050Z,100677
2018-07-09T10:02:21.225Z,100671
2018-07-09T10:03:27.897Z,100683
2018-07-09T10:04:33.069Z,100674
2018-07-09T10:05:37.958Z,100671
2018-07-09T10:06:43.652Z,100683
2018-07-09T10:07:49.026Z,100680
2018-07-09T10:08:54.471Z,100686
2018-07-09T10:09:59.708Z,100683
2018-07-09T10:11:05.172Z,100683
2018-07-09T10:12:10.056Z,100692
2018-07-09T10:13:15.761Z,100680
2018-07-09T10:14:20.922Z,100683
2018-07-09T10:15:40.990Z,100677
2018-07-09T10:16:46.467Z,100674
2018-07-09T10:17:52.481Z,100683
2018-07-09T10:18:58.274Z,100680
2018-07-09T10:20:02.878Z,100680
2018-07-09T10:21:07.492Z,100680
2018-07-09T10:22:12.342Z,100686
2018-07-09T10:23:18.169Z,100674
2018-07-09T10:24:23.863Z,100680
2018-07-09T10:25:43.808Z,100677
2018-07-09T10:26:49.255Z,100691
2018-07-09T10:27:54.667Z,100680
2018-07-09T10:29:00.110Z,100674
2018-07-09T10:30:04.997Z,100683
2018-07-09T10:31:10.143Z,100680
2018-07-09T10:32:15.359Z,100677
2018-07-09T10:33:20.808Z,100680
2018-07-09T10:34:26.333Z,100686
2018-07-09T10:35:31.804Z,100689
2018-07-09T10:36:37.168Z,100680
2018-07-09T10:37:42.350Z,100683
2018-07-09T10:38:47.508Z,100683
2018-07-09T10:39:52.461Z,100683
2018-07-09T10:40:57.361Z,100688
2018-07-09T10:42:01.961Z,100697
2018-07-09T10:43:07.122Z,100683
2018-07-09T10:44:12.280Z,100700
2018-07-09T10:45:17.456Z,100683
2018-07-09T10:46:23.161Z,100694
2018-07-09T10:47:28.049Z,100683
2018-07-09T10:48:33.208Z,100697
2018-07-09T10:49:38.665Z,100697
2018-07-09T10:50:43.696Z,100680
2018-07-09T10:51:49.499Z,100680
2018-07-09T10:52:54.390Z,100691
2018-07-09T10:53:59.289Z,100680
2018-07-09T10:55:05.042Z,100680
2018-07-09T10:56:10.260Z,100683
2018-07-09T10:57:15.452Z,100685
2018-07-09T10:58:21.209Z,100674
2018-07-09T10:59:25.796Z,100674
2018-07-09T11:00:32.110Z,100674
2018-07-09T11:01:37.567Z,100688
2018-07-09T11:02:42.458Z,100686
2018-07-09T11:03:48.148Z,100677
2018-07-09T11:04:53.239Z,100674
2018-07-09T11:05:57.832Z,100680
2018-07-09T11:07:03.058Z,100682
2018-07-09T11:08:07.930Z,100680
2018-07-09T11:09:12.832Z,100671
2018-07-09T11:10:18.577Z,100683
2018-07-09T11:11:23.751Z,100668
2018-07-09T11:12:29.311Z,100668
2018-07-09T11:13:34.768Z,100668
2018-07-09T11:14:39.917Z,100668
2018-07-09T11:15:44.768Z,100674
2018-07-09T11:16:50.216Z,100668
2018-07-09T11:17:54.812Z,100677
2018-07-09T11:19:00.381Z,100662
2018-07-09T11:20:05.549Z,100668
2018-07-09T11:21:10.360Z,100671
2018-07-09T11:22:15.804Z,100665
2018-07-09T11:23:20.979Z,100659
2018-07-09T11:24:27.369Z,100659
2018-07-09T11:25:32.810Z,100656
2018-07-09T11:26:38.029Z,100665
2018-07-09T11:27:43.702Z,100654
2018-07-09T11:28:48.861Z,100651
2018-07-09T11:29:54.036Z,100654
2018-07-09T11:30:59.297Z,100654
2018-07-09T11:32:04.180Z,100662
2018-07-09T11:33:08.792Z,100662
2018-07-09T11:34:13.202Z,100659
2018-07-09T11:35:18.568Z,100654
2018-07-09T11:36:24.145Z,100654
2018-07-09T11:37:44.240Z,100651
2018-07-09T11:38:49.128Z,100659
2018-07-09T11:39:54.457Z,100656
2018-07-09T11:40:59.900Z,100659
2018-07-09T11:42:05.084Z,100645
2018-07-09T11:43:09.931Z,100651
2018-07-09T11:44:14.792Z,100656
2018-07-09T11:45:20.240Z,100656
2018-07-09T11:46:25.929Z,100656
2018-07-09T11:47:31.098Z,100665
2018-07-09T11:48:36.798Z,100662
2018-07-09T11:49:41.694Z,100671
2018-07-09T11:50:46.568Z,100656
2018-07-09T11:51:51.696Z,100662
2018-07-09T11:52:57.144Z,100665
2018-07-09T11:54:02.309Z,100671
2018-07-09T11:55:07.771Z,100665
2018-07-09T11:56:12.933Z,100662
2018-07-09T11:57:18.097Z,100654
2018-07-09T11:58:23.580Z,100659
2018-07-09T11:59:28.748Z,100656
2018-07-09T12:00:33.735Z,100651
2018-07-09T12:01:39.186Z,100656
2018-07-09T12:02:44.338Z,100656
2018-07-09T12:03:49.761Z,100659
2018-07-09T12:04:55.240Z,100665
2018-07-09T12:05:59.956Z,100656
2018-07-09T12:07:05.580Z,100662
2018-07-09T12:08:10.744Z,100659
2018-07-09T12:09:15.929Z,100656
2018-07-09T12:10:21.696Z,100659
2018-07-09T12:11:27.278Z,100656
2018-07-09T12:12:32.754Z,100648
2018-07-09T12:13:37.905Z,100659
2018-07-09T12:14:42.798Z,100654
2018-07-09T12:15:48.073Z,100656
2018-07-09T12:16:53.251Z,100648
2018-07-09T12:17:58.436Z,100656
2018-07-09T12:19:03.855Z,100654
2018-07-09T12:20:08.494Z,100656
2018-07-09T12:21:13.643Z,100668
2018-07-09T12:22:19.225Z,100662
2018-07-09T12:23:24.390Z,100656
2018-07-09T12:24:30.225Z,100656
2018-07-09T12:25:35.305Z,100659
2018-07-09T12:26:40.466Z,100648
2018-07-09T12:27:46.169Z,100648
2018-07-09T12:28:51.494Z,100645
2018-07-09T12:29:57.185Z,100645
2018-07-09T12:31:02.806Z,100642
2018-07-09T12:32:07.692Z,100642
2018-07-09T12:33:13.070Z,100648
2018-07-09T12:34:18.815Z,100659
2018-07-09T12:35:24.043Z,100651
2018-07-09T12:36:30.259Z,100645
2018-07-09T12:37:35.845Z,100642
2018-07-09T12:38:41.292Z,100642
2018-07-09T12:39:47.002Z,100647
2018-07-09T12:40:51.877Z,100633
2018-07-09T12:41:57.322Z,100636
2018-07-09T12:43:02.762Z,100627
2018-07-09T12:44:08.163Z,100627
2018-07-09T12:45:13.313Z,100636
2018-07-09T12:46:18.774Z,100630
2018-07-09T12:47:23.957Z,100627
2018-07-09T12:48:28.818Z,100621
2018-07-09T12:49:33.147Z,100621
2018-07-09T12:50:38.298Z,100630
2018-07-09T12:51:43.462Z,100616
2018-07-09T12:52:48.897Z,100613
2018-07-09T12:53:54.557Z,100616
2018-07-09T12:54:59.717Z,100610
2018-07-09T12:56:04.879Z,100616
2018-07-09T12:57:10.321Z,100613
2018-07-09T12:58:15.489Z,100624
2018-07-09T12:59:20.655Z,100619
2018-07-09T13:00:25.821Z,100616
2018-07-09T13:01:30.845Z,100619
2018-07-09T13:02:36.714Z,100613
2018-07-09T13:03:41.884Z,100627
2018-07-09T13:04:47.331Z,100619
2018-07-09T13:05:52.780Z,100613
2018-07-09T13:06:58.240Z,100613
2018-07-09T13:08:03.297Z,100610
2018-07-09T13:09:08.740Z,100619
2018-07-09T13:10:14.187Z,100616
2018-07-09T13:11:19.581Z,100607
2018-07-09T13:12:24.763Z,100604
2018-07-09T13:13:30.200Z,100619
2018-07-09T13:14:35.502Z,100601
2018-07-09T13:15:40.719Z,100613
2018-07-09T13:16:45.873Z,100613
2018-07-09T13:17:51.069Z,100610
2018-07-09T13:18:56.508Z,100610
2018-07-09T13:20:01.463Z,100601
2018-07-09T13:21:05.793Z,100604
2018-07-09T13:22:10.963Z,100595
2018-07-09T13:23:16.331Z,100590
2018-07-09T13:24:21.778Z,100598
2018-07-09T13:25:27.268Z,100592
2018-07-09T13:26:33.032Z,100595
2018-07-09T13:27:38.486Z,100595
2018-07-09T13:28:43.369Z,100598
2018-07-09T13:29:48.525Z,100590
2018-07-09T13:30:54.043Z,100595
2018-07-09T13:31:59.353Z,100598
2018-07-09T13:33:04.947Z,100595
2018-07-09T13:34:09.543Z,100592
2018-07-09T13:35:14.706Z,100601
2018-07-09T13:36:19.876Z,100576
2018-07-09T13:37:24.469Z,100592